Time;durP1;ratioP1;P1;durP2;ratioP2;P2;SDS_P1;SDS_P2;PMS_P1;PMS_P2;Temp;Humidity;BMP_temperature;BMP_pressure;BME280_temperature;BME280_humidity;BME280_pressure;Samples;Min_cycle;Max_cycle;Signal;HPM_P1;HPM_P2
2024/03/21 00:07:05;;;;;;;131.00;70.40;;;;;;;2.71;71.68;98990.93;435340;1251;99250;-40
2024/03/21 00:17:12;;;;;;;205.30;94.10;;;;;;;2.66;72.00;98983.63;435437;1254;110622;-40
2024/03/21 00:27:18;;;;;;;211.80;95.80;;;;;;;2.60;72.38;98992.98;435521;1254;108000;-39
2024/03/21 00:37:26;;;;;;;208.20;93.40;;;;;;;2.29;72.39;98988.23;435390;1255;99210;-41
2024/03/21 00:47:33;;;;;;;191.70;88.40;;;;;;;2.03;72.80;98990.63;435476;1250;111202;-40
2024/03/21 00:57:40;;;;;;;145.10;78.90;;;;;;;1.87;72.88;98986.81;435290;1254;108717;-40
2024/03/21 01:07:47;;;;;;;142.10;76.70;;;;;;;1.76;73.02;98985.88;435484;1250;99330;-41
2024/03/21 01:17:56;;;;;;;239.30;105.60;;;;;;;1.78;73.28;98975.52;435361;1254;111207;-40
2024/03/21 01:28:03;;;;;;;250.80;114.10;;;;;;;1.62;73.47;98972.40;435377;1254;106684;-39
2024/03/21 01:38:11;;;;;;;229.60;108.90;;;;;;;1.48;73.84;98964.14;435421;1253;99227;-39
2024/03/21 01:48:18;;;;;;;233.20;106.40;;;;;;;1.38;74.06;98960.52;435377;1256;111699;-38
2024/03/21 01:58:25;;;;;;;161.70;83.40;;;;;;;1.34;74.04;98962.16;435335;1255;109705;-40
2024/03/21 02:08:31;;;;;;;140.30;73.20;;;;;;;1.34;74.39;98952.36;435272;1254;99215;-40
2024/03/21 02:18:38;;;;;;;175.90;82.60;;;;;;;1.50;74.70;98951.40;435344;1250;112974;-39
2024/03/21 02:28:46;;;;;;;177.10;84.80;;;;;;;1.31;74.60;98949.30;435515;1255;107982;-40
2024/03/21 02:38:53;;;;;;;180.60;84.70;;;;;;;1.08;74.73;98953.45;436207;1253;99250;-40
2024/03/21 02:49:00;;;;;;;190.70;86.30;;;;;;;0.80;74.82;98956.31;435328;1256;113229;-40
2024/03/21 02:59:06;;;;;;;180.30;85.90;;;;;;;0.58;75.10;98963.89;435326;1256;108343;-40
2024/03/21 03:09:13;;;;;;;133.70;76.10;;;;;;;0.43;75.03;98953.06;435195;1253;99201;-40
2024/03/21 03:19:20;;;;;;;143.30;76.20;;;;;;;0.46;75.46;98948.60;435283;1256;112234;-40
2024/03/21 03:29:26;;;;;;;127.80;69.00;;;;;;;0.54;75.53;98947.46;435272;1251;108462;-40
2024/03/21 03:39:33;;;;;;;184.00;86.00;;;;;;;0.60;75.98;98952.36;435261;1256;98820;-40
2024/03/21 03:49:39;;;;;;;201.50;88.00;;;;;;;0.54;76.21;98954.75;435403;1256;110737;-39
2024/03/21 03:59:46;;;;;;;174.20;82.30;;;;;;;0.55;76.58;98956.73;435269;1255;109364;-41
2024/03/21 04:09:53;;;;;;;148.30;72.00;;;;;;;0.60;76.65;98957.27;435231;1255;99249;-41
2024/03/21 04:19:59;;;;;;;135.30;72.80;;;;;;;0.81;77.33;98964.44;435278;1253;109899;-40
2024/03/21 04:30:08;;;;;;;120.60;66.90;;;;;;;1.03;77.28;98949.29;435300;1250;108449;-41
2024/03/21 04:40:14;;;;;;;126.70;64.40;;;;;;;1.19;77.53;98948.08;435321;1256;98815;-39
2024/03/21 04:50:22;;;;;;;187.90;85.70;;;;;;;1.30;77.70;98945.17;435469;1256;107879;-40
2024/03/21 05:00:27;;;;;;;194.70;92.10;;;;;;;1.31;77.99;98954.46;435364;1256;98533;-40
2024/03/21 05:10:34;;;;;;;186.90;87.80;;;;;;;1.36;78.07;98953.92;435260;1256;110940;-40
2024/03/21 05:20:39;;;;;;;142.40;74.10;;;;;;;1.59;78.29;98956.33;435237;1255;108160;-40
2024/03/21 05:30:47;;;;;;;129.00;66.50;;;;;;;2.41;78.93;98966.86;435345;1264;99260;-41
2024/03/21 05:40:53;;;;;;;150.80;73.70;;;;;;;3.55;79.12;98953.89;435131;1256;532791;-40
2024/03/21 06:01:21;;;;;;;141.40;76.30;;;;;;;4.13;78.30;98980.81;435266;1256;99253;-39
2024/03/21 06:11:28;;;;;;;152.30;79.10;;;;;;;4.10;77.94;98974.89;435292;1251;112070;-40
2024/03/21 06:21:34;;;;;;;117.80;65.50;;;;;;;3.97;77.81;98962.81;435138;1255;108115;-40
2024/03/21 06:31:44;;;;;;;136.60;67.40;;;;;;;3.97;77.96;98955.77;435221;1264;98022;-39
2024/03/21 06:41:49;;;;;;;168.80;85.50;;;;;;;4.12;78.08;98958.28;435383;1256;112276;-41
2024/03/21 06:51:55;;;;;;;176.30;88.70;;;;;;;4.24;78.07;98962.08;435240;1251;108278;-40
2024/03/21 07:02:01;;;;;;;172.20;87.40;;;;;;;4.53;78.11;98965.71;435269;1255;98009;-40
2024/03/21 07:12:05;;;;;;;172.60;89.20;;;;;;;4.92;77.90;98966.27;435345;1255;108306;-40
2024/03/21 07:22:11;;;;;;;135.40;74.30;;;;;;;5.45;77.74;98963.11;435323;1255;99142;-39
2024/03/21 07:32:16;;;;;;;146.80;79.20;;;;;;;6.16;77.67;98960.61;435233;1263;109844;-40
2024/03/21 07:42:23;;;;;;;159.20;84.60;;;;;;;7.04;77.64;98962.42;435353;1256;107169;-40
2024/03/21 07:52:29;;;;;;;147.00;79.70;;;;;;;7.73;77.00;98960.85;435232;1251;98824;-40
2024/03/21 08:02:36;;;;;;;146.30;79.60;;;;;;;8.40;76.44;98960.55;435286;1256;108914;-40
2024/03/21 08:12:42;;;;;;;120.70;66.70;;;;;;;9.02;75.56;98954.55;435270;1257;98825;-41
2024/03/21 08:22:47;;;;;;;109.20;64.00;;;;;;;9.69;74.81;98963.76;435378;1261;110908;-41
2024/03/21 08:32:54;;;;;;;112.10;64.10;;;;;;;10.32;73.62;98962.14;435390;1256;108517;-46
2024/03/21 08:43:00;;;;;;;101.40;60.30;;;;;;;10.82;72.49;98960.07;435177;1256;99255;-41
2024/03/21 08:53:07;;;;;;;99.50;56.50;;;;;;;11.21;71.27;98957.91;435309;1254;108518;-41
2024/03/21 09:03:14;;;;;;;93.20;50.50;;;;;;;11.60;70.37;98947.56;435323;1262;99265;-41
2024/03/21 09:13:20;;;;;;;73.20;42.40;;;;;;;11.96;69.33;98954.64;435431;1251;112235;-39
2024/03/21 09:33:33;;;;;;;51.80;32.60;;;;;;;12.83;66.92;98945.70;435354;1257;99296;-41
2024/03/21 09:43:39;;;;;;;56.60;31.60;;;;;;;13.45;65.02;98937.92;435378;1257;108808;-40
2024/03/21 09:53:44;;;;;;;60.20;35.00;;;;;;;13.83;64.32;98935.27;435313;1251;99227;-40
2024/03/21 10:03:49;;;;;;;55.00;32.40;;;;;;;14.01;62.54;98926.99;435405;1251;110513;-41
2024/03/21 10:13:54;;;;;;;46.40;28.10;;;;;;;13.73;60.17;98913.70;435232;1251;106830;-40
2024/03/21 10:24:04;;;;;;;44.30;27.30;;;;;;;13.98;59.11;98902.39;435404;1251;98584;-40
2024/03/21 10:34:12;;;;;;;54.70;30.50;;;;;;;14.23;58.83;98888.83;435325;1251;107308;-41
2024/03/21 10:44:18;;;;;;;46.50;27.00;;;;;;;14.41;57.13;98881.40;435334;1251;99254;-40
2024/03/21 11:04:37;;;;;;;47.70;27.90;;;;;;;14.84;53.70;98869.70;435318;1251;108411;-40
2024/03/21 11:14:45;;;;;;;44.60;27.70;;;;;;;14.87;52.84;98852.54;435938;1251;97998;-40
2024/03/21 11:24:51;;;;;;;42.80;26.60;;;;;;;14.75;51.59;98850.98;435093;1256;107445;-40
2024/03/21 11:34:57;;;;;;;38.10;24.80;;;;;;;14.87;52.32;98846.93;435325;1257;99253;-40
2024/03/21 11:45:03;;;;;;;48.40;29.00;;;;;;;15.00;51.93;98837.33;435405;1255;112814;-40
2024/03/21 11:55:10;;;;;;;47.00;27.20;;;;;;;15.11;51.28;98828.58;435282;1254;109280;-40
2024/03/21 12:05:16;;;;;;;39.90;26.70;;;;;;;15.31;50.90;98818.23;435351;1254;99334;-40
2024/03/21 12:15:23;;;;;;;39.40;23.60;;;;;;;15.36;48.73;98812.89;435448;1255;108463;-40
2024/03/21 12:25:30;;;;;;;36.00;22.90;;;;;;;15.31;48.26;98811.19;435346;1251;98111;-39
2024/03/21 12:35:36;;;;;;;30.40;19.40;;;;;;;15.47;48.35;98795.37;435287;1256;112101;-40
2024/03/21 12:45:44;;;;;;;32.00;20.30;;;;;;;15.69;48.71;98789.30;435364;1255;108574;-41
2024/03/21 13:05:56;;;;;;;25.40;16.30;;;;;;;15.52;47.19;98776.16;435329;1256;108428;-40
2024/03/21 13:16:02;;;;;;;25.90;16.60;;;;;;;15.51;47.83;98766.45;435388;1251;98000;-41
2024/03/21 13:36:15;;;;;;;29.10;16.70;;;;;;;15.51;47.26;98748.12;435200;1257;109709;-40
2024/03/21 13:46:22;;;;;;;27.40;16.90;;;;;;;15.41;45.86;98731.86;435374;1254;99383;-41
2024/03/21 14:06:35;;;;;;;20.20;13.80;;;;;;;15.45;46.22;98716.12;435377;1251;99295;-40
2024/03/21 14:16:43;;;;;;;23.90;13.40;;;;;;;15.58;46.78;98706.70;435146;1251;111901;-40
2024/03/21 14:26:50;;;;;;;74.80;43.40;;;;;;;15.70;46.93;98713.12;435204;1256;107273;-41
2024/03/21 14:36:57;;;;;;;22.50;11.70;;;;;;;15.81;47.07;98721.56;435351;1256;99265;-40
2024/03/21 14:47:04;;;;;;;25.60;12.90;;;;;;;15.75;46.10;98723.63;435351;1255;108184;-40
2024/03/21 14:57:11;;;;;;;34.30;11.00;;;;;;;15.67;46.36;98718.59;435313;1251;98865;-40
2024/03/21 15:07:18;;;;;;;15.50;8.50;;;;;;;15.58;46.76;98711.22;435389;1256;112850;-40
2024/03/21 15:17:24;;;;;;;11.40;7.50;;;;;;;15.45;46.85;98705.77;435252;1251;108532;-40
2024/03/21 15:27:31;;;;;;;13.30;7.50;;;;;;;15.30;46.69;98700.20;435310;1251;99270;-40
2024/03/21 15:37:38;;;;;;;18.00;11.10;;;;;;;15.07;46.53;98703.11;435251;1253;109478;-40
2024/03/21 15:47:45;;;;;;;26.70;13.00;;;;;;;14.90;46.69;98696.33;435365;1251;98508;-40
2024/03/21 15:57:52;;;;;;;15.00;8.10;;;;;;;14.78;47.34;98694.60;435301;1254;112117;-40
2024/03/21 16:07:58;;;;;;;25.80;14.30;;;;;;;14.64;47.35;98690.40;435342;1250;109268;-40
2024/03/21 16:28:12;;;;;;;62.80;16.80;;;;;;;14.19;47.57;98688.69;435274;1256;106773;-40
2024/03/21 16:38:21;;;;;;;25.70;12.80;;;;;;;13.87;48.24;98695.42;435265;1251;98625;-42
2024/03/21 16:48:28;;;;;;;35.50;19.00;;;;;;;13.60;48.57;98694.95;435409;1254;110398;-41
2024/03/21 16:58:35;;;;;;;39.80;21.60;;;;;;;13.39;49.17;98693.05;435334;1256;108395;-40
2024/03/21 17:08:42;;;;;;;63.70;31.80;;;;;;;13.13;49.77;98698.73;435294;1251;99321;-40
2024/03/21 17:18:49;;;;;;;63.50;36.50;;;;;;;12.85;50.49;98713.33;435454;1252;107739;-41
2024/03/21 17:28:56;;;;;;;60.50;33.50;;;;;;;12.63;51.05;98732.19;435388;1250;99259;-40
2024/03/21 17:39:03;;;;;;;59.10;33.60;;;;;;;12.48;51.64;98741.05;435030;1255;520639;-41
2024/03/21 17:49:10;;;;;;;76.20;34.30;;;;;;;12.30;52.27;98746.10;435227;1254;109789;-40
2024/03/21 17:59:16;;;;;;;100.60;39.60;;;;;;;12.04;53.18;98755.90;435718;1251;97996;-41
2024/03/21 18:09:32;;;;;;;93.80;43.40;;;;;;;11.79;53.96;98764.59;435522;1255;108584;-39
2024/03/21 18:19:40;;;;;;;58.40;32.10;;;;;;;11.53;54.64;98768.96;435409;1256;99729;-40
2024/03/21 18:29:47;;;;;;;87.80;42.90;;;;;;;11.40;55.18;98768.89;435284;1251;112821;-41
2024/03/21 18:39:53;;;;;;;79.20;39.00;;;;;;;11.28;56.03;98770.20;436082;1256;108964;-41
2024/03/21 19:00:08;;;;;;;193.40;84.80;;;;;;;11.02;57.20;98781.79;436079;1253;108454;-40
2024/03/21 19:10:14;;;;;;;287.90;118.70;;;;;;;10.86;57.66;98784.45;435424;1256;102731;-40
2024/03/21 19:20:20;;;;;;;193.50;84.90;;;;;;;10.79;58.17;98789.69;435389;1254;112611;-40
2024/03/21 19:40:33;;;;;;;133.20;63.00;;;;;;;10.59;59.12;98802.50;435471;1255;100539;-40
2024/03/21 20:00:45;;;;;;;135.60;66.90;;;;;;;10.42;60.12;98796.95;435291;1253;99653;-40
2024/03/21 20:10:56;;;;;;;146.40;72.00;;;;;;;10.39;60.42;98800.25;435298;1251;112920;-42
2024/03/21 20:31:10;;;;;;;69.40;40.30;;;;;;;10.47;60.66;98806.95;435260;1253;99368;-40
2024/03/21 20:41:17;;;;;;;72.90;38.80;;;;;;;10.61;60.89;98799.50;435509;1255;107815;-41
2024/03/21 20:51:23;;;;;;;74.00;42.80;;;;;;;10.59;61.12;98795.30;435605;1256;100591;-41
2024/03/21 21:01:31;;;;;;;79.30;42.50;;;;;;;10.58;61.75;98796.54;435167;1256;113798;-40
2024/03/21 21:11:38;;;;;;;91.70;45.90;;;;;;;10.64;62.11;98793.77;435173;1256;108736;-40
2024/03/21 21:21:43;;;;;;;78.20;39.00;;;;;;;10.75;62.55;98796.83;435328;1255;99406;-41
2024/03/21 21:31:50;;;;;;;79.30;41.20;;;;;;;10.62;62.75;98794.98;435590;1256;108911;-41
2024/03/21 21:41:57;;;;;;;61.00;34.10;;;;;;;10.50;62.94;98795.04;436507;1256;100571;-41
2024/03/21 22:02:21;;;;;;;49.00;29.40;;;;;;;10.21;63.41;98805.66;436694;1255;107636;-41
2024/03/21 22:12:27;;;;;;;52.30;29.20;;;;;;;10.12;63.79;98812.04;436586;1250;99369;-39
2024/03/21 22:22:34;;;;;;;49.80;29.50;;;;;;;10.11;64.01;98817.21;437204;1256;108026;-39
2024/03/21 22:32:42;;;;;;;49.80;29.00;;;;;;;10.22;64.48;98821.29;436199;1255;100571;-39
2024/03/21 22:42:47;;;;;;;54.70;29.70;;;;;;;10.34;64.98;98825.21;435562;1256;113176;-41
2024/03/21 22:52:54;;;;;;;55.80;32.10;;;;;;;10.36;65.30;98832.51;435160;1256;107896;-40
2024/03/21 23:03:01;;;;;;;48.40;31.50;;;;;;;10.27;66.01;98832.31;435691;1252;100679;-40
2024/03/21 23:13:08;;;;;;;52.00;32.80;;;;;;;10.24;66.83;98831.98;435294;1254;106857;-41
2024/03/21 23:23:15;;;;;;;52.60;32.60;;;;;;;10.27;67.85;98829.30;435292;1256;100601;-45
2024/03/21 23:33:21;;;;;;;54.60;32.70;;;;;;;10.23;68.99;98828.89;435231;1256;112195;-40
2024/03/21 23:43:27;;;;;;;51.00;30.80;;;;;;;10.15;69.49;98816.31;435302;1256;109220;-40
2024/03/21 23:53:38;;;;;;;45.40;29.00;;;;;;;10.12;69.74;98806.92;435337;1255;100604;-40
